createdAt,value
2023-03-16T00:02:25.201Z,9.20
2023-03-16T00:05:27.954Z,9.53
2023-03-16T00:08:30.717Z,8.57
2023-03-16T00:11:33.423Z,9.17
2023-03-16T00:14:36.567Z,8.53
2023-03-16T00:17:40.416Z,8.02
2023-03-16T00:23:45.557Z,7.00
2023-03-16T00:26:48.788Z,7.43
2023-03-16T00:29:56.423Z,9.30
2023-03-16T00:33:01.987Z,8.93
2023-03-16T00:36:08.100Z,8.63
2023-03-16T00:39:11.927Z,9.20
2023-03-16T00:42:16.663Z,8.43
2023-03-16T00:45:19.244Z,8.37
2023-03-16T00:48:24.377Z,9.40
2023-03-16T00:51:27.036Z,9.23
2023-03-16T00:54:30.065Z,10.07
2023-03-16T00:57:32.973Z,12.68
2023-03-16T01:00:36.418Z,11.63
2023-03-16T01:03:40.608Z,12.90
2023-03-16T01:06:43.141Z,12.80
2023-03-16T01:09:45.687Z,10.60
2023-03-16T01:12:48.253Z,18.13
2023-03-16T01:15:51.621Z,25.50
2023-03-16T01:18:56.874Z,19.33
2023-03-16T01:21:59.535Z,14.50
2023-03-16T01:25:02.131Z,11.20
2023-03-16T01:28:04.687Z,10.63
2023-03-16T01:31:09.322Z,9.13
2023-03-16T01:34:16.624Z,11.73
2023-03-16T01:37:19.219Z,9.67
2023-03-16T01:40:22.084Z,9.37
2023-03-16T01:43:26.694Z,11.23
2023-03-16T01:46:30.204Z,11.30
2023-03-16T01:49:35.446Z,10.77
2023-03-16T01:52:38.607Z,9.93
2023-03-16T01:55:41.909Z,10.50
2023-03-16T01:58:45.728Z,9.50
2023-03-16T02:04:56.571Z,9.87
2023-03-16T02:07:59.531Z,9.03
2023-03-16T02:11:02.238Z,9.63
2023-03-16T02:14:09.376Z,10.20
2023-03-16T02:17:12.530Z,9.37
2023-03-16T02:20:25.162Z,10.90
2023-03-16T02:23:27.876Z,10.23
2023-03-16T02:26:35.187Z,9.57
2023-03-16T02:30:01.482Z,9.70
2023-03-16T02:33:05.218Z,9.53
2023-03-16T02:36:08.692Z,9.67
2023-03-16T02:39:11.311Z,8.00
2023-03-16T02:42:15.973Z,9.70
2023-03-16T02:45:19.966Z,9.33
2023-03-16T02:48:24.808Z,9.23
2023-03-16T02:51:27.272Z,9.20
2023-03-16T02:54:30.338Z,9.87
2023-03-16T02:57:33.208Z,8.82
2023-03-16T03:00:37.334Z,8.43
2023-03-16T03:03:39.919Z,9.70
2023-03-16T03:06:42.731Z,8.30
2023-03-16T03:09:45.419Z,8.93
2023-03-16T03:12:49.453Z,9.03
2023-03-16T03:15:53.703Z,8.27
2023-03-16T03:18:56.304Z,8.93
2023-03-16T03:21:58.826Z,8.63
2023-03-16T03:25:02.890Z,9.00
2023-03-16T03:28:06.469Z,10.10
2023-03-16T03:31:14.545Z,9.30
2023-03-16T03:34:17.043Z,9.23
2023-03-16T03:37:19.946Z,9.90
2023-03-16T03:40:22.811Z,8.93
2023-03-16T03:43:25.446Z,9.18
2023-03-16T03:46:29.367Z,9.57
2023-03-16T03:49:32.259Z,8.93
2023-03-16T03:52:34.802Z,9.97
2023-03-16T03:55:37.358Z,10.00
2023-03-16T03:58:39.894Z,8.57
2023-03-16T04:01:43.782Z,9.50
2023-03-16T04:07:50.704Z,8.77
2023-03-16T04:10:53.256Z,8.73
2023-03-16T04:13:55.727Z,8.67
2023-03-16T04:16:59.699Z,10.23
2023-03-16T04:20:05.331Z,10.43
2023-03-16T04:23:07.846Z,8.90
2023-03-16T04:26:10.588Z,8.83
2023-03-16T04:29:14.334Z,8.83
2023-03-16T04:32:21.886Z,8.90
2023-03-16T04:35:25.675Z,9.67
2023-03-16T04:41:36.357Z,9.87
2023-03-16T04:44:44.253Z,9.60
2023-03-16T04:47:49.628Z,11.13
2023-03-16T04:50:52.249Z,11.60
2023-03-16T04:53:55.363Z,10.43
2023-03-16T04:56:57.934Z,10.77
2023-03-16T05:00:00.822Z,10.23
2023-03-16T05:03:05.187Z,10.10
2023-03-16T05:06:08.264Z,10.83
2023-03-16T05:09:10.852Z,9.52
2023-03-16T05:12:13.465Z,10.27
2023-03-16T05:15:16.257Z,10.17
2023-03-16T05:18:20.092Z,11.23
2023-03-16T05:24:25.469Z,9.80
2023-03-16T05:27:28.177Z,9.93
2023-03-16T05:30:31.280Z,10.17
2023-03-16T05:33:35.561Z,10.68
2023-03-16T05:36:38.115Z,10.47
2023-03-16T05:39:40.745Z,9.63
2023-03-16T05:42:44.112Z,14.63
2023-03-16T05:45:46.936Z,10.82
2023-03-16T05:48:51.155Z,11.43
2023-03-16T05:51:54.821Z,10.10
2023-03-16T05:54:57.546Z,11.02
2023-03-16T05:58:00.138Z,10.67
2023-03-16T06:01:02.963Z,10.40
2023-03-16T06:04:07.387Z,11.00
2023-03-16T06:07:10.714Z,10.70
2023-03-16T06:10:13.770Z,11.35
2023-03-16T06:13:16.449Z,10.77
2023-03-16T06:16:19.095Z,10.77
2023-03-16T06:19:23.019Z,11.37
2023-03-16T06:25:28.205Z,9.43
2023-03-16T06:28:30.749Z,9.77
2023-03-16T06:31:34.083Z,10.60
2023-03-16T06:34:38.391Z,11.38
2023-03-16T06:37:41.079Z,11.33
2023-03-16T06:40:43.649Z,11.07
2023-03-16T06:43:47.252Z,12.23
2023-03-16T06:46:49.767Z,11.60
2023-03-16T06:49:55.238Z,10.23
2023-03-16T06:52:57.770Z,12.97
2023-03-16T06:56:01.164Z,10.50
2023-03-16T06:59:03.695Z,11.75
2023-03-16T07:02:06.930Z,11.53
2023-03-16T07:05:13.125Z,11.68
2023-03-16T07:08:16.109Z,12.77
2023-03-16T07:11:18.631Z,11.80
2023-03-16T07:14:23.254Z,11.60
2023-03-16T07:17:26.001Z,11.90
2023-03-16T07:20:32.242Z,12.97
2023-03-16T07:23:34.881Z,13.33
2023-03-16T07:26:37.685Z,13.17
2023-03-16T07:29:40.192Z,13.80
2023-03-16T07:32:42.934Z,12.50
2023-03-16T07:35:46.933Z,12.13
2023-03-16T07:38:49.498Z,11.17
2023-03-16T07:41:52.102Z,10.73
2023-03-16T07:44:54.755Z,12.23
2023-03-16T07:47:57.358Z,9.43
2023-03-16T07:51:01.672Z,8.37
2023-03-16T07:54:04.364Z,8.50
2023-03-16T07:57:07.208Z,8.30
2023-03-16T08:00:11.158Z,8.10
2023-03-16T08:03:13.962Z,8.03
2023-03-16T08:06:18.164Z,8.77
2023-03-16T08:09:21.304Z,6.83
2023-03-16T08:12:23.962Z,6.97
2023-03-16T08:15:26.668Z,6.37
2023-03-16T08:18:29.785Z,7.43
2023-03-16T08:21:35.121Z,5.80
2023-03-16T08:24:40.556Z,5.80
2023-03-16T08:27:43.372Z,6.83
2023-03-16T08:30:47.930Z,5.93
2023-03-16T08:33:50.830Z,6.53
2023-03-16T08:36:55.326Z,5.63
2023-03-16T08:40:00.438Z,6.10
2023-03-16T08:43:03.804Z,5.87
2023-03-16T08:46:06.938Z,6.95
2023-03-16T08:49:09.708Z,7.45
2023-03-16T08:52:13.924Z,7.43
2023-03-16T08:55:16.850Z,6.87
2023-03-16T08:58:19.834Z,6.55
2023-03-16T09:01:22.691Z,5.50
2023-03-16T09:04:25.364Z,6.05
2023-03-16T09:07:29.291Z,5.30
2023-03-16T09:10:33.139Z,4.87
2023-03-16T09:13:36.444Z,5.13
2023-03-16T09:16:39.432Z,5.00
2023-03-16T09:19:52.166Z,5.07
2023-03-16T09:22:57.571Z,5.05
2023-03-16T09:26:01.623Z,5.03
2023-03-16T09:29:06.816Z,5.07
2023-03-16T09:32:10.472Z,4.43
2023-03-16T09:38:17.667Z,4.77
2023-03-16T09:41:32.405Z,4.80
2023-03-16T09:44:40.480Z,3.27
2023-03-16T09:47:43.575Z,2.83
2023-03-16T09:50:49.265Z,3.95
2023-03-16T09:53:59.169Z,3.77
2023-03-16T09:57:02.272Z,4.37
2023-03-16T10:00:17.248Z,2.63
2023-03-16T10:03:32.280Z,3.87
2023-03-16T10:06:37.233Z,4.43
2023-03-16T10:09:44.536Z,3.97
2023-03-16T10:12:51.515Z,3.33
2023-03-16T10:15:55.295Z,3.50
2023-03-16T10:19:02.398Z,4.23
2023-03-16T10:22:18.524Z,3.80
2023-03-16T10:25:25.051Z,4.30
2023-03-16T10:28:29.425Z,4.10
2023-03-16T10:31:35.080Z,4.03
2023-03-16T10:34:37.755Z,3.50
2023-03-16T10:37:40.536Z,3.70
2023-03-16T10:40:44.588Z,2.92
2023-03-16T10:43:49.217Z,3.07
2023-03-16T10:47:00.703Z,3.70
2023-03-16T10:50:14.272Z,2.87
2023-03-16T10:53:20.963Z,3.33
2023-03-16T10:56:28.123Z,2.83
2023-03-16T10:59:34.209Z,2.90
2023-03-16T11:02:36.805Z,2.63
2023-03-16T11:05:39.622Z,2.80
2023-03-16T11:08:42.442Z,3.15
2023-03-16T11:11:49.905Z,2.58
2023-03-16T11:14:54.010Z,2.67
2023-03-16T11:17:57.437Z,2.27
2023-03-16T11:21:04.989Z,2.22
2023-03-16T11:24:17.083Z,2.13
2023-03-16T11:27:26.147Z,2.20
2023-03-16T11:30:31.452Z,2.37
2023-03-16T11:33:34.822Z,2.00
2023-03-16T11:36:45.624Z,2.72
2023-03-16T11:39:56.361Z,2.40
2023-03-16T11:43:06.139Z,2.37
2023-03-16T11:46:11.871Z,2.40
2023-03-16T11:49:32.695Z,2.10
2023-03-16T11:52:46.263Z,2.07
2023-03-16T11:56:00.640Z,2.13
2023-03-16T11:59:23.030Z,3.20
2023-03-16T12:02:46.346Z,2.50
2023-03-16T12:05:57.100Z,2.60
2023-03-16T12:09:16.896Z,2.23
2023-03-16T12:12:30.838Z,2.07
2023-03-16T12:15:38.432Z,1.90
2023-03-16T12:18:44.777Z,1.67
2023-03-16T12:21:49.952Z,1.80
2023-03-16T12:24:53.288Z,2.20
2023-03-16T12:27:57.907Z,1.80
2023-03-16T12:31:09.458Z,2.37
2023-03-16T12:34:20.711Z,2.50
2023-03-16T12:37:29.544Z,1.90
2023-03-16T12:40:34.780Z,2.20
2023-03-16T12:43:49.719Z,2.37
2023-03-16T12:46:57.685Z,2.40
2023-03-16T12:50:06.051Z,2.10
2023-03-16T12:53:08.656Z,1.80
2023-03-16T12:56:12.855Z,2.17
2023-03-16T12:59:19.625Z,1.90
2023-03-16T13:02:26.955Z,2.27
2023-03-16T13:05:32.110Z,2.43
2023-03-16T13:08:42.575Z,2.13
2023-03-16T13:11:50.228Z,2.37
2023-03-16T13:14:54.783Z,1.63
2023-03-16T13:18:23.278Z,2.27
2023-03-16T13:21:36.503Z,2.30
2023-03-16T13:24:41.002Z,2.13
2023-03-16T13:27:45.538Z,1.97
2023-03-16T13:30:49.485Z,2.10
2023-03-16T13:33:55.583Z,2.10
2023-03-16T13:36:59.655Z,1.50
2023-03-16T13:40:04.393Z,2.00
2023-03-16T13:43:07.075Z,2.30
2023-03-16T13:46:17.132Z,1.85
2023-03-16T13:49:21.329Z,2.00
2023-03-16T13:52:26.834Z,2.43
2023-03-16T13:55:32.859Z,1.97
2023-03-16T13:58:37.852Z,2.53
2023-03-16T14:01:45.515Z,1.73
2023-03-16T14:04:49.755Z,1.87
2023-03-16T14:07:52.700Z,1.60
2023-03-16T14:10:59.820Z,1.92
2023-03-16T14:14:15.983Z,2.03
2023-03-16T14:17:20.688Z,1.67
2023-03-16T14:20:26.004Z,2.60
2023-03-16T14:23:34.091Z,2.10
2023-03-16T14:26:44.129Z,1.97
2023-03-16T14:29:47.373Z,1.73
2023-03-16T14:32:58.786Z,1.97
2023-03-16T14:36:13.017Z,2.23
2023-03-16T14:39:18.194Z,2.23
2023-03-16T14:42:24.362Z,1.90
2023-03-16T14:45:31.627Z,2.00
2023-03-16T14:48:35.278Z,1.80
2023-03-16T14:51:41.083Z,1.63
2023-03-16T14:54:43.696Z,1.50
2023-03-16T14:57:46.944Z,1.40
2023-03-16T15:03:56.586Z,1.97
2023-03-16T15:07:00.720Z,1.92
2023-03-16T15:10:09.822Z,2.20
2023-03-16T15:13:16.899Z,2.40
2023-03-16T15:16:21.680Z,2.30
2023-03-16T15:19:24.252Z,2.00
2023-03-16T15:22:32.356Z,2.15
2023-03-16T15:25:36.849Z,2.93
2023-03-16T15:28:39.603Z,2.87
2023-03-16T15:31:42.350Z,2.35
2023-03-16T15:34:46.442Z,1.75
2023-03-16T15:37:50.454Z,2.33
2023-03-16T15:40:53.562Z,1.40
2023-03-16T15:44:00.657Z,1.75
2023-03-16T15:47:04.446Z,1.57
2023-03-16T15:50:08.514Z,1.30
2023-03-16T15:53:29.829Z,1.80
2023-03-16T15:56:47.224Z,1.53
2023-03-16T15:59:53.823Z,1.20
2023-03-16T16:02:57.862Z,1.55
2023-03-16T16:06:00.348Z,1.43
2023-03-16T16:09:04.544Z,1.63
2023-03-16T16:12:10.429Z,1.30
2023-03-16T16:15:20.048Z,2.23
2023-03-16T16:18:30.171Z,2.53
2023-03-16T16:21:35.039Z,2.10
2023-03-16T16:24:39.604Z,2.40
2023-03-16T16:27:42.420Z,2.40
2023-03-16T16:30:45.377Z,2.42
2023-03-16T16:33:47.986Z,2.08
2023-03-16T16:36:50.788Z,1.80
2023-03-16T16:39:54.836Z,1.67
2023-03-16T16:42:57.404Z,1.80
2023-03-16T16:46:00.345Z,1.90
2023-03-16T16:49:06.685Z,2.38
2023-03-16T16:52:12.366Z,1.63
2023-03-16T16:55:16.332Z,1.80
2023-03-16T16:58:24.493Z,2.33
2023-03-16T17:01:29.663Z,1.80
2023-03-16T17:04:32.521Z,2.40
2023-03-16T17:07:35.171Z,2.40
2023-03-16T17:10:40.340Z,2.10
2023-03-16T17:13:43.116Z,2.30
2023-03-16T17:16:47.565Z,1.48
2023-03-16T17:19:50.140Z,2.20
2023-03-16T17:22:54.952Z,1.80
2023-03-16T17:26:00.876Z,2.30
2023-03-16T17:29:06.964Z,1.80
2023-03-16T17:32:18.654Z,2.03
2023-03-16T17:35:21.526Z,2.17
2023-03-16T17:38:25.611Z,2.50
2023-03-16T17:41:32.961Z,2.27
2023-03-16T17:44:39.016Z,1.90
2023-03-16T17:47:41.633Z,1.97
2023-03-16T17:50:46.060Z,2.30
2023-03-16T17:53:49.011Z,2.17
2023-03-16T17:56:53.643Z,1.92
2023-03-16T17:59:56.442Z,2.10
2023-03-16T18:03:00.874Z,1.50
2023-03-16T18:06:04.636Z,1.87
2023-03-16T18:09:07.583Z,2.10
2023-03-16T18:12:30.204Z,2.00
2023-03-16T18:15:34.869Z,1.97
2023-03-16T18:18:39.577Z,2.33
2023-03-16T18:21:42.240Z,1.70
2023-03-16T18:24:44.939Z,2.03
2023-03-16T18:27:49.588Z,1.93
2023-03-16T18:30:53.576Z,2.20
2023-03-16T18:33:57.440Z,1.80
2023-03-16T18:37:06.887Z,2.20
2023-03-16T18:40:12.642Z,2.10
2023-03-16T18:43:18.132Z,2.00
2023-03-16T18:46:26.211Z,2.03
2023-03-16T18:49:32.839Z,2.37
2023-03-16T18:52:37.111Z,2.33
2023-03-16T18:55:44.937Z,2.90
2023-03-16T18:58:49.159Z,2.80
2023-03-16T19:01:51.744Z,2.00
2023-03-16T19:04:54.735Z,2.50
2023-03-16T19:07:57.500Z,2.78
2023-03-16T19:11:02.103Z,2.30
2023-03-16T19:14:14.310Z,2.63
2023-03-16T19:17:16.966Z,2.73
2023-03-16T19:20:21.129Z,2.57
2023-03-16T19:23:26.383Z,2.63
2023-03-16T19:26:29.405Z,2.50
2023-03-16T19:29:35.132Z,2.20
2023-03-16T19:32:38.701Z,2.90
2023-03-16T19:35:51.366Z,2.80
2023-03-16T19:38:54.870Z,4.80
2023-03-16T19:41:59.138Z,3.75
2023-03-16T19:45:03.963Z,2.80
2023-03-16T19:48:11.655Z,2.50
2023-03-16T19:51:15.949Z,3.00
2023-03-16T19:54:22.577Z,2.50
2023-03-16T19:57:25.263Z,3.07
2023-03-16T20:00:30.976Z,3.03
2023-03-16T20:03:36.432Z,3.10
2023-03-16T20:06:39.058Z,3.33
2023-03-16T20:09:41.657Z,2.50
2023-03-16T20:12:44.338Z,3.40
2023-03-16T20:15:48.417Z,3.67
2023-03-16T20:18:54.755Z,3.40
2023-03-16T20:21:57.222Z,3.47
2023-03-16T20:25:02.200Z,4.03
2023-03-16T20:28:05.302Z,3.97
2023-03-16T20:31:18.412Z,4.40
2023-03-16T20:34:23.522Z,4.05
2023-03-16T20:37:27.840Z,3.17
2023-03-16T20:40:30.581Z,4.70
2023-03-16T20:43:33.466Z,3.80
2023-03-16T20:46:41.090Z,3.63
2023-03-16T20:49:44.542Z,4.70
2023-03-16T20:52:47.788Z,4.45
2023-03-16T20:55:50.723Z,4.50
2023-03-16T20:58:56.075Z,4.78
2023-03-16T21:02:01.088Z,3.80
2023-03-16T21:05:06.458Z,4.37
2023-03-16T21:08:09.476Z,4.27
2023-03-16T21:11:21.205Z,4.57
2023-03-16T21:14:24.716Z,4.40
2023-03-16T21:17:31.817Z,4.80
2023-03-16T21:20:36.550Z,6.57
2023-03-16T21:23:39.169Z,4.67
2023-03-16T21:26:43.261Z,5.73
2023-03-16T21:29:45.940Z,3.87
2023-03-16T21:32:49.908Z,3.23
2023-03-16T21:35:52.515Z,3.70
2023-03-16T21:38:56.404Z,4.00
2023-03-16T21:41:59.024Z,3.63
2023-03-16T21:45:01.795Z,3.67
2023-03-16T21:48:06.283Z,4.03
2023-03-16T21:51:14.370Z,3.77
2023-03-16T21:54:19.209Z,4.27
2023-03-16T21:57:22.111Z,3.90
2023-03-16T22:00:26.769Z,4.93
2023-03-16T22:03:47.978Z,4.70
2023-03-16T22:06:52.141Z,4.23
2023-03-16T22:09:54.688Z,4.20
2023-03-16T22:12:58.248Z,3.80
2023-03-16T22:16:00.914Z,3.67
2023-03-16T22:19:05.815Z,3.93
2023-03-16T22:22:11.189Z,3.57
2023-03-16T22:25:15.257Z,4.00
2023-03-16T22:28:18.004Z,3.23
2023-03-16T22:31:22.382Z,3.30
2023-03-16T22:34:32.493Z,3.47
2023-03-16T22:37:35.179Z,3.60
2023-03-16T22:40:39.220Z,3.70
2023-03-16T22:43:44.046Z,4.53
2023-03-16T22:46:46.797Z,4.50
2023-03-16T22:49:51.048Z,3.43
2023-03-16T22:52:55.627Z,3.53
2023-03-16T22:55:58.304Z,3.70
2023-03-16T22:59:03.619Z,3.90
2023-03-16T23:02:07.154Z,3.77
2023-03-16T23:05:19.703Z,4.50
2023-03-16T23:08:24.188Z,3.63
2023-03-16T23:11:28.652Z,5.63
2023-03-16T23:14:33.941Z,4.87
2023-03-16T23:17:36.593Z,4.77
2023-03-16T23:20:40.528Z,5.13
2023-03-16T23:23:48.311Z,4.30
2023-03-16T23:26:59.781Z,5.00
2023-03-16T23:30:02.473Z,5.03
2023-03-16T23:33:05.227Z,4.30
2023-03-16T23:36:15.294Z,3.50
2023-03-16T23:39:17.936Z,4.20
2023-03-16T23:42:20.497Z,4.87
2023-03-16T23:45:27.300Z,4.10
2023-03-16T23:48:30.003Z,5.87
2023-03-16T23:51:37.024Z,3.70
2023-03-16T23:54:39.666Z,3.80
2023-03-16T23:57:42.323Z,4.50
